createdAt,value
2022-10-17T00:02:51.881Z,7.30
2022-10-17T00:07:56.509Z,7.85
2022-10-17T00:13:02.076Z,6.53
2022-10-17T00:18:05.737Z,6.78
2022-10-17T00:23:11.049Z,6.53
2022-10-17T00:28:16.718Z,7.53
2022-10-17T00:33:20.248Z,7.18
2022-10-17T00:38:23.779Z,7.70
2022-10-17T00:43:29.489Z,7.60
2022-10-17T00:48:33.016Z,6.40
2022-10-17T00:53:37.878Z,7.30
2022-10-17T00:58:43.226Z,7.70
2022-10-17T01:03:47.026Z,9.23
2022-10-17T01:08:50.570Z,9.73
2022-10-17T01:14:02.421Z,7.57
2022-10-17T01:19:26.610Z,8.27
2022-10-17T01:24:49.458Z,10.80
2022-10-17T01:30:10.467Z,8.95
2022-10-17T01:35:23.222Z,7.53
2022-10-17T01:40:31.311Z,8.15
2022-10-17T01:45:41.534Z,11.52
2022-10-17T01:50:51.748Z,8.68
2022-10-17T01:55:58.913Z,8.75
2022-10-17T02:01:06.148Z,10.18
2022-10-17T02:06:12.286Z,10.10
2022-10-17T02:11:18.543Z,10.88
2022-10-17T02:16:35.273Z,11.07
2022-10-17T02:21:51.969Z,9.48
2022-10-17T02:27:02.772Z,8.20
2022-10-17T02:32:09.619Z,9.70
2022-10-17T02:37:23.910Z,11.13
2022-10-17T02:42:30.203Z,10.63
2022-10-17T02:47:38.527Z,9.93
2022-10-17T02:52:49.250Z,9.57
2022-10-17T02:57:56.796Z,12.95
2022-10-17T03:03:00.312Z,9.77
2022-10-17T03:08:05.758Z,7.82
2022-10-17T03:13:09.281Z,8.27
2022-10-17T03:18:13.087Z,12.00
2022-10-17T03:23:27.831Z,10.45
2022-10-17T03:28:31.387Z,10.23
2022-10-17T03:33:34.978Z,9.88
2022-10-17T03:38:40.640Z,9.13
2022-10-17T03:43:44.158Z,9.45
2022-10-17T03:48:47.692Z,9.05
2022-10-17T03:53:53.038Z,8.43
2022-10-17T03:58:57.070Z,13.18
2022-10-17T04:04:00.628Z,12.13
2022-10-17T04:09:06.630Z,9.70
2022-10-17T04:14:11.529Z,10.60
2022-10-17T04:19:15.265Z,11.20
2022-10-17T04:24:20.534Z,8.38
2022-10-17T04:29:24.820Z,10.07
2022-10-17T04:34:28.361Z,12.63
2022-10-17T04:39:33.518Z,12.00
2022-10-17T04:44:37.058Z,11.73
2022-10-17T04:54:46.546Z,9.35
2022-10-17T04:59:50.098Z,12.80
2022-10-17T05:04:53.618Z,13.52
2022-10-17T05:09:58.804Z,8.52
2022-10-17T05:15:02.346Z,14.03
2022-10-17T05:20:06.885Z,13.68
2022-10-17T05:25:13.863Z,12.32
2022-10-17T05:30:17.496Z,12.15
2022-10-17T05:35:21.067Z,11.73
2022-10-17T05:40:26.278Z,13.07
2022-10-17T05:45:29.822Z,12.90
2022-10-17T05:50:33.501Z,9.90
2022-10-17T05:55:38.658Z,13.90
2022-10-17T06:00:42.231Z,9.57
2022-10-17T06:05:45.763Z,11.73
2022-10-17T06:10:51.411Z,13.48
2022-10-17T06:15:55.015Z,9.90
2022-10-17T06:21:03.877Z,10.70
2022-10-17T06:26:09.238Z,13.95
2022-10-17T06:31:14.527Z,10.90
2022-10-17T06:36:18.202Z,10.00
2022-10-17T06:41:23.346Z,10.25
2022-10-17T06:46:26.852Z,10.50
2022-10-17T06:51:30.414Z,14.25
2022-10-17T06:56:36.505Z,14.07
2022-10-17T07:06:49.886Z,13.15
2022-10-17T07:11:55.080Z,8.07
2022-10-17T07:16:58.661Z,9.83
2022-10-17T07:22:02.212Z,10.98
2022-10-17T07:27:07.486Z,11.25
2022-10-17T07:32:11.061Z,9.63
2022-10-17T07:37:14.621Z,9.02
2022-10-17T07:42:19.807Z,10.13
2022-10-17T07:47:23.608Z,8.60
2022-10-17T07:52:27.474Z,10.23
2022-10-17T07:57:32.891Z,7.35
2022-10-17T08:02:36.418Z,9.95
2022-10-17T08:07:39.969Z,8.75
2022-10-17T08:12:45.799Z,8.65
2022-10-17T08:17:50.246Z,9.70
2022-10-17T08:22:54.192Z,10.05
2022-10-17T08:27:59.630Z,10.63
2022-10-17T08:33:03.222Z,12.13
2022-10-17T08:38:08.180Z,9.82
2022-10-17T08:43:35.345Z,8.95
2022-10-17T08:53:55.124Z,10.52
2022-10-17T08:59:00.384Z,8.35
2022-10-17T09:04:20.532Z,12.07
2022-10-17T09:09:35.222Z,7.35
2022-10-17T09:15:09.048Z,7.13
2022-10-17T09:20:17.132Z,7.65
2022-10-17T09:25:21.839Z,9.30
2022-10-17T09:30:50.796Z,9.93
2022-10-17T09:35:54.962Z,8.52
2022-10-17T09:41:01.289Z,7.78
2022-10-17T09:46:13.755Z,7.53
2022-10-17T09:51:25.588Z,8.63
2022-10-17T09:56:30.357Z,8.05
2022-10-17T10:01:35.564Z,7.55
2022-10-17T10:06:39.822Z,6.32
2022-10-17T10:11:48.869Z,7.10
2022-10-17T10:16:54.311Z,8.77
2022-10-17T10:21:59.461Z,7.40
2022-10-17T10:27:04.907Z,7.05
2022-10-17T10:32:13.208Z,9.13
2022-10-17T10:37:22.449Z,7.90
2022-10-17T10:42:29.718Z,10.50
2022-10-17T10:47:34.944Z,8.75
2022-10-17T10:52:44.065Z,9.50
2022-10-17T10:57:49.507Z,7.43
2022-10-17T11:03:03.810Z,8.60
2022-10-17T11:08:14.868Z,9.13
2022-10-17T11:13:23.049Z,7.30
2022-10-17T11:18:34.086Z,7.65
2022-10-17T11:23:42.294Z,7.85
2022-10-17T11:28:45.873Z,7.25
2022-10-17T11:33:55.086Z,8.95
2022-10-17T11:39:02.773Z,8.20
2022-10-17T11:44:20.970Z,6.63
2022-10-17T11:49:32.134Z,9.55
2022-10-17T11:54:41.988Z,8.45
2022-10-17T12:00:07.649Z,8.30
2022-10-17T12:05:22.593Z,9.25
2022-10-17T12:10:40.028Z,8.30
2022-10-17T12:15:46.558Z,11.63
2022-10-17T12:20:57.530Z,7.40
2022-10-17T12:26:04.718Z,8.85
2022-10-17T12:31:11.758Z,8.75
2022-10-17T12:36:49.538Z,12.65
2022-10-17T12:41:55.951Z,8.30
2022-10-17T12:46:59.880Z,6.22
2022-10-17T12:52:49.286Z,8.32
2022-10-17T12:57:57.319Z,8.63
2022-10-17T13:03:07.492Z,7.60
2022-10-17T13:08:18.705Z,7.68
2022-10-17T13:13:26.331Z,8.23
2022-10-17T13:18:30.496Z,7.93
2022-10-17T13:23:37.568Z,9.07
2022-10-17T13:28:41.179Z,7.47
2022-10-17T13:33:44.715Z,8.23
2022-10-17T13:38:50.114Z,8.50
2022-10-17T13:43:54.052Z,10.00
2022-10-17T13:48:58.903Z,9.70
2022-10-17T13:54:19.382Z,7.53
2022-10-17T13:59:24.718Z,8.10
2022-10-17T14:04:28.304Z,8.93
2022-10-17T14:09:33.860Z,7.65
2022-10-17T14:15:05.146Z,8.80
2022-10-17T14:20:34.026Z,8.10
2022-10-17T14:25:31.709Z,8.65
2022-10-17T14:35:59.702Z,6.47
2022-10-17T14:46:35.515Z,7.50
2022-10-17T14:51:50.384Z,7.20
2022-10-17T14:57:15.785Z,10.18
2022-10-17T15:02:19.302Z,9.27
2022-10-17T15:07:23.231Z,9.35
2022-10-17T15:12:28.707Z,8.80
2022-10-17T15:17:33.737Z,8.25
2022-10-17T15:22:37.339Z,7.35
2022-10-17T15:27:42.552Z,9.73
2022-10-17T15:32:46.098Z,7.53
2022-10-17T15:37:50.319Z,9.60
2022-10-17T15:42:55.520Z,7.93
2022-10-17T15:48:04.975Z,9.57
2022-10-17T15:53:12.804Z,8.43
2022-10-17T15:58:19.561Z,8.90
2022-10-17T16:03:23.091Z,7.43
2022-10-17T16:08:26.675Z,8.43
2022-10-17T16:13:32.267Z,10.27
2022-10-17T16:18:35.787Z,10.63
2022-10-17T16:23:39.334Z,11.65
2022-10-17T16:28:46.215Z,11.07
2022-10-17T16:33:51.621Z,14.90
2022-10-17T16:38:55.214Z,13.60
2022-10-17T16:44:02.373Z,14.05
2022-10-17T16:49:06.404Z,13.38
2022-10-17T16:54:10.071Z,11.80
2022-10-17T16:59:15.230Z,10.93
2022-10-17T17:04:18.755Z,14.33
2022-10-17T17:09:22.386Z,15.27
2022-10-17T17:14:27.646Z,13.27
2022-10-17T17:19:31.321Z,14.63
2022-10-17T17:24:34.840Z,15.75
2022-10-17T17:29:40.605Z,15.48
2022-10-17T17:34:44.130Z,13.90
2022-10-17T17:39:47.652Z,13.35
2022-10-17T17:44:53.726Z,14.98
2022-10-17T17:49:57.277Z,11.35
2022-10-17T17:55:00.812Z,11.40
2022-10-17T18:00:07.075Z,10.02
2022-10-17T18:05:10.649Z,13.20
2022-10-17T18:15:20.788Z,11.27
2022-10-17T18:20:24.328Z,8.80
2022-10-17T18:25:27.830Z,12.82
2022-10-17T18:30:34.539Z,11.88
2022-10-17T18:35:38.201Z,9.82
2022-10-17T18:40:41.742Z,10.45
2022-10-17T18:45:46.887Z,13.18
2022-10-17T18:50:50.461Z,10.25
2022-10-17T18:55:53.989Z,10.93
2022-10-17T19:01:03.472Z,11.38
2022-10-17T19:06:08.900Z,11.65
2022-10-17T19:11:14.821Z,12.52
2022-10-17T19:16:21.859Z,12.23
2022-10-17T19:21:26.140Z,14.25
2022-10-17T19:26:31.608Z,11.83
2022-10-17T19:31:37.405Z,13.60
2022-10-17T19:36:41.216Z,13.30
2022-10-17T19:41:45.950Z,12.93
2022-10-17T19:46:52.153Z,12.95
2022-10-17T19:51:55.813Z,10.57
2022-10-17T19:56:59.437Z,8.95
2022-10-17T20:02:04.734Z,12.15
2022-10-17T20:07:08.285Z,11.43
2022-10-17T20:12:11.831Z,8.90
2022-10-17T20:17:17.747Z,11.27
2022-10-17T20:22:21.479Z,9.98
2022-10-17T20:27:27.664Z,11.25
2022-10-17T20:32:39.528Z,11.25
2022-10-17T20:37:43.843Z,10.98
2022-10-17T20:42:47.359Z,12.93
2022-10-17T20:47:53.465Z,10.80
2022-10-17T20:53:11.114Z,11.82
2022-10-17T20:58:20.908Z,16.48
2022-10-17T21:03:26.101Z,9.98
2022-10-17T21:08:29.648Z,9.77
2022-10-17T21:13:33.153Z,10.60
2022-10-17T21:18:38.836Z,11.30
2022-10-17T21:23:43.746Z,12.13
2022-10-17T21:28:48.518Z,14.65
2022-10-17T21:33:55.946Z,10.02
2022-10-17T21:38:59.755Z,12.45
2022-10-17T21:44:04.943Z,10.70
2022-10-17T21:49:12.011Z,13.60
2022-10-17T21:54:16.189Z,12.35
2022-10-17T21:59:19.821Z,10.50
2022-10-17T22:04:24.978Z,11.50
2022-10-17T22:09:28.598Z,10.88
2022-10-17T22:14:32.136Z,10.57
2022-10-17T22:19:37.344Z,11.68
2022-10-17T22:24:40.852Z,12.13
2022-10-17T22:29:44.373Z,9.90
2022-10-17T22:34:51.014Z,12.25
2022-10-17T22:39:54.568Z,12.77
2022-10-17T22:44:58.158Z,11.55
2022-10-17T22:50:03.358Z,13.82
2022-10-17T22:55:08.002Z,13.65
2022-10-17T23:00:12.887Z,11.43
2022-10-17T23:05:18.166Z,12.93
2022-10-17T23:10:21.704Z,12.18
2022-10-17T23:15:25.249Z,10.93
2022-10-17T23:20:31.577Z,12.88
2022-10-17T23:25:35.620Z,11.30
2022-10-17T23:30:39.498Z,9.57
2022-10-17T23:35:44.667Z,9.48
2022-10-17T23:40:48.183Z,8.90
2022-10-17T23:45:51.701Z,10.50
2022-10-17T23:50:57.787Z,11.98
2022-10-17T23:56:01.447Z,11.38
